< < Back
Terminal Aerodrome Forecast


Current Version              Previous Versions:   1  2  3  4  5  6  7  8  9  

Terminal Aerodrome Forecast

310
FTUS42 KTAE 271720
TAFVLD
TAF
KVLD 271720Z 2718/2818 12005KT P6SM SCT030
     FM281000 00000KT 3SM BR SCT005 BKN010
     FM281400 08006KT P6SM SCT025=

Latest METAR

877
SAUS70 KWBC 271900 RRB
MTRVLD
METAR KVLD 271853Z 00000KT 10SM CLR 33/18 A2993 RMK AO2 SLP139
T03330183


USA.gov is the U.S. government's official web portal to all federal, state and local government web resources and services.